sensor_id;sensor_type;location;lat;lon;timestamp;temperature;humidity
5304;DHT22;2674;49.722;10.892;2023-07-31T00:00:15;15.70;1.00
5304;DHT22;2674;49.722;10.892;2023-07-31T00:02:41;15.70;1.00
5304;DHT22;2674;49.722;10.892;2023-07-31T00:05:08;15.70;1.00
5304;DHT22;2674;49.722;10.892;2023-07-31T00:07:34;15.80;1.00
5304;DHT22;2674;49.722;10.892;2023-07-31T00:10:00;15.80;1.00
5304;DHT22;2674;49.722;10.892;2023-07-31T00:12:26;15.80;94.40
5304;DHT22;2674;49.722;10.892;2023-07-31T00:14:52;15.80;1.00
5304;DHT22;2674;49.722;10.892;2023-07-31T00:17:18;15.80;1.00
5304;DHT22;2674;49.722;10.892;2023-07-31T00:19:44;15.80;1.00
5304;DHT22;2674;49.722;10.892;2023-07-31T00:22:12;15.80;1.00
5304;DHT22;2674;49.722;10.892;2023-07-31T00:24:37;15.80;1.00
5304;DHT22;2674;49.722;10.892;2023-07-31T00:27:05;15.90;1.00
5304;DHT22;2674;49.722;10.892;2023-07-31T00:29:30;15.90;1.00
5304;DHT22;2674;49.722;10.892;2023-07-31T00:31:56;15.90;1.00
5304;DHT22;2674;49.722;10.892;2023-07-31T00:34:22;16.00;89.10
5304;DHT22;2674;49.722;10.892;2023-07-31T00:36:48;16.00;1.00
5304;DHT22;2674;49.722;10.892;2023-07-31T00:39:13;15.90;1.00
5304;DHT22;2674;49.722;10.892;2023-07-31T00:41:39;15.90;99.90
5304;DHT22;2674;49.722;10.892;2023-07-31T00:44:05;15.90;99.90
5304;DHT22;2674;49.722;10.892;2023-07-31T00:46:31;16.00;15.10
5304;DHT22;2674;49.722;10.892;2023-07-31T00:48:57;16.00;99.90
5304;DHT22;2674;49.722;10.892;2023-07-31T00:51:23;16.00;1.00
5304;DHT22;2674;49.722;10.892;2023-07-31T00:53:49;16.00;1.00
5304;DHT22;2674;49.722;10.892;2023-07-31T00:56:15;16.00;1.00
5304;DHT22;2674;49.722;10.892;2023-07-31T00:58:41;16.00;1.00
5304;DHT22;2674;49.722;10.892;2023-07-31T01:01:07;16.00;1.00
5304;DHT22;2674;49.722;10.892;2023-07-31T01:03:33;16.00;1.00
5304;DHT22;2674;49.722;10.892;2023-07-31T01:06:15;16.00;19.00
5304;DHT22;2674;49.722;10.892;2023-07-31T01:08:53;16.00;99.90
5304;DHT22;2674;49.722;10.892;2023-07-31T01:11:43;16.00;1.00
5304;DHT22;2674;49.722;10.892;2023-07-31T01:14:12;16.00;1.00
5304;DHT22;2674;49.722;10.892;2023-07-31T01:16:38;16.00;1.00
5304;DHT22;2674;49.722;10.892;2023-07-31T01:19:04;16.00;1.00
5304;DHT22;2674;49.722;10.892;2023-07-31T01:27:23;16.00;1.00
5304;DHT22;2674;49.722;10.892;2023-07-31T01:30:16;16.00;99.90
5304;DHT22;2674;49.722;10.892;2023-07-31T01:32:43;16.10;1.00
5304;DHT22;2674;49.722;10.892;2023-07-31T01:35:12;16.10;1.00
5304;DHT22;2674;49.722;10.892;2023-07-31T01:37:38;16.10;1.00
5304;DHT22;2674;49.722;10.892;2023-07-31T01:40:04;16.10;99.90
5304;DHT22;2674;49.722;10.892;2023-07-31T01:42:31;16.10;1.00
5304;DHT22;2674;49.722;10.892;2023-07-31T01:44:56;16.10;1.00
5304;DHT22;2674;49.722;10.892;2023-07-31T01:47:22;16.10;99.90
5304;DHT22;2674;49.722;10.892;2023-07-31T01:49:49;16.10;99.90
5304;DHT22;2674;49.722;10.892;2023-07-31T01:52:15;16.10;99.90
5304;DHT22;2674;49.722;10.892;2023-07-31T01:54:41;16.10;99.90
5304;DHT22;2674;49.722;10.892;2023-07-31T01:57:06;16.10;99.90
5304;DHT22;2674;49.722;10.892;2023-07-31T01:59:32;16.10;99.90
5304;DHT22;2674;49.722;10.892;2023-07-31T02:01:58;16.10;85.40
5304;DHT22;2674;49.722;10.892;2023-07-31T02:04:24;16.10;89.30
5304;DHT22;2674;49.722;10.892;2023-07-31T02:06:50;16.10;21.00
5304;DHT22;2674;49.722;10.892;2023-07-31T02:09:15;16.10;1.00
5304;DHT22;2674;49.722;10.892;2023-07-31T02:11:41;16.10;1.00
5304;DHT22;2674;49.722;10.892;2023-07-31T02:14:07;16.20;72.60
5304;DHT22;2674;49.722;10.892;2023-07-31T02:16:33;16.20;1.00
5304;DHT22;2674;49.722;10.892;2023-07-31T02:18:59;15.90;1.00
5304;DHT22;2674;49.722;10.892;2023-07-31T02:21:25;16.10;1.00
5304;DHT22;2674;49.722;10.892;2023-07-31T02:23:50;16.10;1.00
5304;DHT22;2674;49.722;10.892;2023-07-31T02:26:16;16.20;1.00
5304;DHT22;2674;49.722;10.892;2023-07-31T02:28:42;16.20;1.00
5304;DHT22;2674;49.722;10.892;2023-07-31T02:31:08;16.20;1.00
5304;DHT22;2674;49.722;10.892;2023-07-31T02:33:34;16.20;1.00
5304;DHT22;2674;49.722;10.892;2023-07-31T02:36:00;16.30;1.00
5304;DHT22;2674;49.722;10.892;2023-07-31T02:38:26;16.30;1.00
5304;DHT22;2674;49.722;10.892;2023-07-31T02:40:52;16.30;1.00
5304;DHT22;2674;49.722;10.892;2023-07-31T02:43:18;16.30;1.00
5304;DHT22;2674;49.722;10.892;2023-07-31T02:45:43;16.30;1.00
5304;DHT22;2674;49.722;10.892;2023-07-31T02:48:09;16.40;1.00
5304;DHT22;2674;49.722;10.892;2023-07-31T02:50:35;16.30;1.00
5304;DHT22;2674;49.722;10.892;2023-07-31T02:53:01;16.30;1.00
5304;DHT22;2674;49.722;10.892;2023-07-31T02:55:27;16.40;1.00
5304;DHT22;2674;49.722;10.892;2023-07-31T02:57:53;16.40;1.00
5304;DHT22;2674;49.722;10.892;2023-07-31T03:00:19;16.40;1.00
5304;DHT22;2674;49.722;10.892;2023-07-31T03:02:45;16.40;1.00
5304;DHT22;2674;49.722;10.892;2023-07-31T03:05:11;16.40;1.00
5304;DHT22;2674;49.722;10.892;2023-07-31T03:07:36;16.40;99.90
5304;DHT22;2674;49.722;10.892;2023-07-31T03:10:02;16.40;99.90
5304;DHT22;2674;49.722;10.892;2023-07-31T03:12:28;16.40;99.90
5304;DHT22;2674;49.722;10.892;2023-07-31T03:14:54;16.40;99.90
5304;DHT22;2674;49.722;10.892;2023-07-31T03:17:20;16.40;99.90
5304;DHT22;2674;49.722;10.892;2023-07-31T03:19:45;16.40;99.90
5304;DHT22;2674;49.722;10.892;2023-07-31T03:22:11;16.40;99.90
5304;DHT22;2674;49.722;10.892;2023-07-31T03:24:37;16.50;99.90
5304;DHT22;2674;49.722;10.892;2023-07-31T03:27:03;16.50;66.40
5304;DHT22;2674;49.722;10.892;2023-07-31T03:29:29;16.50;29.80
5304;DHT22;2674;49.722;10.892;2023-07-31T03:31:55;16.50;1.00
5304;DHT22;2674;49.722;10.892;2023-07-31T03:34:21;16.60;1.00
5304;DHT22;2674;49.722;10.892;2023-07-31T03:36:50;16.60;1.00
5304;DHT22;2674;49.722;10.892;2023-07-31T03:39:15;16.60;1.00
5304;DHT22;2674;49.722;10.892;2023-07-31T03:41:41;16.60;1.00
5304;DHT22;2674;49.722;10.892;2023-07-31T03:44:07;16.60;1.00
5304;DHT22;2674;49.722;10.892;2023-07-31T03:46:33;16.60;1.00
5304;DHT22;2674;49.722;10.892;2023-07-31T03:49:00;16.60;1.00
5304;DHT22;2674;49.722;10.892;2023-07-31T03:51:25;16.60;1.00
5304;DHT22;2674;49.722;10.892;2023-07-31T03:53:51;16.60;1.00
5304;DHT22;2674;49.722;10.892;2023-07-31T03:56:17;16.60;1.00
5304;DHT22;2674;49.722;10.892;2023-07-31T03:58:43;16.60;1.00
5304;DHT22;2674;49.722;10.892;2023-07-31T04:01:09;16.60;1.00
5304;DHT22;2674;49.722;10.892;2023-07-31T04:03:35;16.50;1.00
5304;DHT22;2674;49.722;10.892;2023-07-31T04:06:00;16.50;1.00
5304;DHT22;2674;49.722;10.892;2023-07-31T04:08:26;16.60;1.00
5304;DHT22;2674;49.722;10.892;2023-07-31T04:10:52;16.60;1.00
5304;DHT22;2674;49.722;10.892;2023-07-31T04:13:18;16.60;1.00
5304;DHT22;2674;49.722;10.892;2023-07-31T04:15:48;16.60;1.00
5304;DHT22;2674;49.722;10.892;2023-07-31T04:18:15;16.60;1.00
5304;DHT22;2674;49.722;10.892;2023-07-31T04:20:41;16.60;1.00
5304;DHT22;2674;49.722;10.892;2023-07-31T04:23:07;16.60;1.00
5304;DHT22;2674;49.722;10.892;2023-07-31T04:25:33;16.60;1.00
5304;DHT22;2674;49.722;10.892;2023-07-31T04:28:00;16.60;1.00
5304;DHT22;2674;49.722;10.892;2023-07-31T04:30:26;16.60;1.00
5304;DHT22;2674;49.722;10.892;2023-07-31T04:32:52;16.60;1.00
5304;DHT22;2674;49.722;10.892;2023-07-31T04:35:18;16.60;1.00
5304;DHT22;2674;49.722;10.892;2023-07-31T04:37:43;16.60;1.00
5304;DHT22;2674;49.722;10.892;2023-07-31T04:40:12;16.60;1.00
5304;DHT22;2674;49.722;10.892;2023-07-31T04:42:37;16.60;1.00
5304;DHT22;2674;49.722;10.892;2023-07-31T04:45:03;16.60;1.00
5304;DHT22;2674;49.722;10.892;2023-07-31T04:47:29;16.60;11.80
5304;DHT22;2674;49.722;10.892;2023-07-31T04:49:55;16.60;1.00
5304;DHT22;2674;49.722;10.892;2023-07-31T04:52:21;16.60;24.70
5304;DHT22;2674;49.722;10.892;2023-07-31T04:54:47;16.60;1.00
5304;DHT22;2674;49.722;10.892;2023-07-31T04:57:13;16.60;1.00
5304;DHT22;2674;49.722;10.892;2023-07-31T04:59:39;16.60;1.00
5304;DHT22;2674;49.722;10.892;2023-07-31T05:02:06;16.60;1.00
5304;DHT22;2674;49.722;10.892;2023-07-31T05:04:32;16.70;1.00
5304;DHT22;2674;49.722;10.892;2023-07-31T05:06:58;16.70;1.00
5304;DHT22;2674;49.722;10.892;2023-07-31T05:09:24;16.80;1.00
5304;DHT22;2674;49.722;10.892;2023-07-31T05:11:50;16.80;1.00
5304;DHT22;2674;49.722;10.892;2023-07-31T05:14:16;16.90;1.00
5304;DHT22;2674;49.722;10.892;2023-07-31T05:16:42;16.90;1.00
5304;DHT22;2674;49.722;10.892;2023-07-31T05:19:07;16.90;1.00
5304;DHT22;2674;49.722;10.892;2023-07-31T05:21:33;16.90;1.00
5304;DHT22;2674;49.722;10.892;2023-07-31T05:23:59;16.90;1.00
5304;DHT22;2674;49.722;10.892;2023-07-31T05:26:25;16.90;1.00
5304;DHT22;2674;49.722;10.892;2023-07-31T05:28:50;16.90;1.00
5304;DHT22;2674;49.722;10.892;2023-07-31T05:31:16;16.90;1.00
5304;DHT22;2674;49.722;10.892;2023-07-31T05:33:42;16.90;1.00
5304;DHT22;2674;49.722;10.892;2023-07-31T05:36:08;16.90;1.00
5304;DHT22;2674;49.722;10.892;2023-07-31T05:38:34;16.90;1.00
5304;DHT22;2674;49.722;10.892;2023-07-31T05:41:00;16.90;1.00
5304;DHT22;2674;49.722;10.892;2023-07-31T05:43:26;17.00;1.00
5304;DHT22;2674;49.722;10.892;2023-07-31T05:45:52;17.00;1.00
5304;DHT22;2674;49.722;10.892;2023-07-31T05:48:18;17.00;1.00
5304;DHT22;2674;49.722;10.892;2023-07-31T05:50:44;17.10;1.00
5304;DHT22;2674;49.722;10.892;2023-07-31T05:53:10;17.10;1.00
5304;DHT22;2674;49.722;10.892;2023-07-31T05:55:36;17.20;1.00
5304;DHT22;2674;49.722;10.892;2023-07-31T05:58:02;17.20;1.00
5304;DHT22;2674;49.722;10.892;2023-07-31T06:00:27;17.30;1.00
5304;DHT22;2674;49.722;10.892;2023-07-31T06:02:53;17.40;1.00
5304;DHT22;2674;49.722;10.892;2023-07-31T06:05:19;17.40;1.00
5304;DHT22;2674;49.722;10.892;2023-07-31T06:07:45;17.70;1.00
5304;DHT22;2674;49.722;10.892;2023-07-31T06:10:11;17.60;99.90
5304;DHT22;2674;49.722;10.892;2023-07-31T06:12:37;17.60;99.90
5304;DHT22;2674;49.722;10.892;2023-07-31T06:15:03;17.60;99.90
5304;DHT22;2674;49.722;10.892;2023-07-31T06:17:30;17.70;99.90
5304;DHT22;2674;49.722;10.892;2023-07-31T06:19:56;17.70;99.90
5304;DHT22;2674;49.722;10.892;2023-07-31T06:22:22;17.70;99.90
5304;DHT22;2674;49.722;10.892;2023-07-31T06:24:48;17.70;99.90
5304;DHT22;2674;49.722;10.892;2023-07-31T06:27:14;17.60;99.90
5304;DHT22;2674;49.722;10.892;2023-07-31T06:29:40;17.60;99.90
5304;DHT22;2674;49.722;10.892;2023-07-31T06:32:06;17.60;1.00
5304;DHT22;2674;49.722;10.892;2023-07-31T06:34:32;17.60;1.00
5304;DHT22;2674;49.722;10.892;2023-07-31T06:36:58;17.60;1.00
5304;DHT22;2674;49.722;10.892;2023-07-31T06:39:24;17.70;99.90
5304;DHT22;2674;49.722;10.892;2023-07-31T06:41:50;17.70;99.90
5304;DHT22;2674;49.722;10.892;2023-07-31T06:44:16;17.80;99.90
5304;DHT22;2674;49.722;10.892;2023-07-31T06:46:42;17.80;99.90
5304;DHT22;2674;49.722;10.892;2023-07-31T06:49:08;17.90;99.90
5304;DHT22;2674;49.722;10.892;2023-07-31T06:51:34;17.90;99.90
5304;DHT22;2674;49.722;10.892;2023-07-31T06:54:01;18.00;99.90
5304;DHT22;2674;49.722;10.892;2023-07-31T06:56:27;18.00;99.90
5304;DHT22;2674;49.722;10.892;2023-07-31T06:58:53;18.10;99.90
5304;DHT22;2674;49.722;10.892;2023-07-31T07:01:18;18.10;99.90
5304;DHT22;2674;49.722;10.892;2023-07-31T07:03:44;18.20;99.90
5304;DHT22;2674;49.722;10.892;2023-07-31T07:06:10;18.30;99.90
5304;DHT22;2674;49.722;10.892;2023-07-31T07:08:36;18.30;99.90
5304;DHT22;2674;49.722;10.892;2023-07-31T07:11:02;18.40;99.90
5304;DHT22;2674;49.722;10.892;2023-07-31T07:13:28;18.40;99.90
5304;DHT22;2674;49.722;10.892;2023-07-31T07:15:54;18.40;99.90
5304;DHT22;2674;49.722;10.892;2023-07-31T07:18:20;18.50;99.90
5304;DHT22;2674;49.722;10.892;2023-07-31T07:20:49;18.50;99.90
5304;DHT22;2674;49.722;10.892;2023-07-31T07:23:15;18.40;99.90
5304;DHT22;2674;49.722;10.892;2023-07-31T07:25:42;18.50;99.90
5304;DHT22;2674;49.722;10.892;2023-07-31T07:28:08;18.50;99.90
5304;DHT22;2674;49.722;10.892;2023-07-31T07:30:34;18.60;99.90
5304;DHT22;2674;49.722;10.892;2023-07-31T07:33:00;18.60;99.90
5304;DHT22;2674;49.722;10.892;2023-07-31T07:35:26;18.70;78.50
5304;DHT22;2674;49.722;10.892;2023-07-31T07:37:52;18.70;99.90
5304;DHT22;2674;49.722;10.892;2023-07-31T07:40:19;18.80;99.90
5304;DHT22;2674;49.722;10.892;2023-07-31T07:42:45;18.80;99.90
5304;DHT22;2674;49.722;10.892;2023-07-31T07:45:12;18.90;99.90
5304;DHT22;2674;49.722;10.892;2023-07-31T07:47:40;19.00;74.20
5304;DHT22;2674;49.722;10.892;2023-07-31T07:50:06;19.10;52.30
5304;DHT22;2674;49.722;10.892;2023-07-31T07:52:32;19.10;1.00
5304;DHT22;2674;49.722;10.892;2023-07-31T07:54:58;19.20;1.00
5304;DHT22;2674;49.722;10.892;2023-07-31T07:57:25;19.30;1.00
5304;DHT22;2674;49.722;10.892;2023-07-31T07:59:51;19.40;5.90
5304;DHT22;2674;49.722;10.892;2023-07-31T08:02:17;19.60;1.00
5304;DHT22;2674;49.722;10.892;2023-07-31T08:04:43;19.70;1.00
5304;DHT22;2674;49.722;10.892;2023-07-31T08:07:11;19.80;1.00
5304;DHT22;2674;49.722;10.892;2023-07-31T08:09:40;19.90;1.00
5304;DHT22;2674;49.722;10.892;2023-07-31T08:12:06;20.10;1.00
5304;DHT22;2674;49.722;10.892;2023-07-31T08:14:32;20.30;1.00
5304;DHT22;2674;49.722;10.892;2023-07-31T08:16:58;20.40;1.00
5304;DHT22;2674;49.722;10.892;2023-07-31T08:19:24;20.60;1.00
5304;DHT22;2674;49.722;10.892;2023-07-31T08:21:50;20.80;1.00
5304;DHT22;2674;49.722;10.892;2023-07-31T08:24:16;20.90;1.00
5304;DHT22;2674;49.722;10.892;2023-07-31T08:26:45;20.90;1.00
5304;DHT22;2674;49.722;10.892;2023-07-31T08:29:11;21.00;1.00
5304;DHT22;2674;49.722;10.892;2023-07-31T08:31:36;21.10;1.00
5304;DHT22;2674;49.722;10.892;2023-07-31T08:34:03;21.20;1.00
5304;DHT22;2674;49.722;10.892;2023-07-31T08:36:28;21.30;1.00
5304;DHT22;2674;49.722;10.892;2023-07-31T08:38:54;21.30;1.00
5304;DHT22;2674;49.722;10.892;2023-07-31T08:41:20;21.40;1.00
5304;DHT22;2674;49.722;10.892;2023-07-31T08:43:46;21.50;1.00
5304;DHT22;2674;49.722;10.892;2023-07-31T08:46:12;21.60;1.00
5304;DHT22;2674;49.722;10.892;2023-07-31T08:48:43;21.70;1.00
5304;DHT22;2674;49.722;10.892;2023-07-31T08:51:11;21.70;1.00
5304;DHT22;2674;49.722;10.892;2023-07-31T08:53:37;21.90;1.00
5304;DHT22;2674;49.722;10.892;2023-07-31T08:56:03;22.00;1.00
5304;DHT22;2674;49.722;10.892;2023-07-31T08:58:32;22.10;1.00
5304;DHT22;2674;49.722;10.892;2023-07-31T09:01:04;22.10;1.00
5304;DHT22;2674;49.722;10.892;2023-07-31T09:03:34;22.00;1.00
5304;DHT22;2674;49.722;10.892;2023-07-31T09:06:02;22.10;1.00
5304;DHT22;2674;49.722;10.892;2023-07-31T09:08:31;22.30;1.00
5304;DHT22;2674;49.722;10.892;2023-07-31T09:11:01;22.40;1.00
5304;DHT22;2674;49.722;10.892;2023-07-31T09:13:30;22.40;1.00
5304;DHT22;2674;49.722;10.892;2023-07-31T09:15:56;22.30;1.00
5304;DHT22;2674;49.722;10.892;2023-07-31T09:18:22;22.30;1.00
5304;DHT22;2674;49.722;10.892;2023-07-31T09:21:05;22.20;1.00
5304;DHT22;2674;49.722;10.892;2023-07-31T09:23:42;22.10;1.00
5304;DHT22;2674;49.722;10.892;2023-07-31T09:26:09;22.10;1.00
5304;DHT22;2674;49.722;10.892;2023-07-31T09:28:34;22.00;1.00
5304;DHT22;2674;49.722;10.892;2023-07-31T09:31:00;22.00;1.00
5304;DHT22;2674;49.722;10.892;2023-07-31T09:33:28;22.00;1.00
5304;DHT22;2674;49.722;10.892;2023-07-31T09:35:58;22.10;1.00
5304;DHT22;2674;49.722;10.892;2023-07-31T09:38:25;22.10;1.00
5304;DHT22;2674;49.722;10.892;2023-07-31T09:40:50;22.10;1.00
5304;DHT22;2674;49.722;10.892;2023-07-31T09:43:21;22.20;1.00
5304;DHT22;2674;49.722;10.892;2023-07-31T09:45:47;22.20;1.00
5304;DHT22;2674;49.722;10.892;2023-07-31T09:48:15;22.20;1.00
5304;DHT22;2674;49.722;10.892;2023-07-31T09:50:46;22.00;1.00
5304;DHT22;2674;49.722;10.892;2023-07-31T09:53:13;22.00;1.00
5304;DHT22;2674;49.722;10.892;2023-07-31T09:55:40;21.80;1.00
5304;DHT22;2674;49.722;10.892;2023-07-31T09:58:08;21.80;1.00
5304;DHT22;2674;49.722;10.892;2023-07-31T10:00:35;21.80;1.00
5304;DHT22;2674;49.722;10.892;2023-07-31T10:03:08;21.70;1.00
5304;DHT22;2674;49.722;10.892;2023-07-31T10:05:36;21.70;1.00
5304;DHT22;2674;49.722;10.892;2023-07-31T10:08:04;21.70;1.00
5304;DHT22;2674;49.722;10.892;2023-07-31T10:10:31;21.90;1.00
5304;DHT22;2674;49.722;10.892;2023-07-31T10:12:59;22.00;1.00
5304;DHT22;2674;49.722;10.892;2023-07-31T10:15:26;22.10;1.00
5304;DHT22;2674;49.722;10.892;2023-07-31T10:17:52;22.30;1.00
5304;DHT22;2674;49.722;10.892;2023-07-31T10:20:18;22.50;1.00
5304;DHT22;2674;49.722;10.892;2023-07-31T10:22:44;22.60;1.00
5304;DHT22;2674;49.722;10.892;2023-07-31T10:25:15;22.90;1.00
5304;DHT22;2674;49.722;10.892;2023-07-31T10:27:42;23.00;1.00
5304;DHT22;2674;49.722;10.892;2023-07-31T10:30:14;23.20;1.00
5304;DHT22;2674;49.722;10.892;2023-07-31T10:35:17;23.50;1.00
5304;DHT22;2674;49.722;10.892;2023-07-31T10:37:43;23.70;1.00
5304;DHT22;2674;49.722;10.892;2023-07-31T10:40:12;23.70;1.00
5304;DHT22;2674;49.722;10.892;2023-07-31T10:42:52;23.60;1.00
5304;DHT22;2674;49.722;10.892;2023-07-31T10:45:32;23.60;1.00
5304;DHT22;2674;49.722;10.892;2023-07-31T10:48:00;23.50;1.00
5304;DHT22;2674;49.722;10.892;2023-07-31T10:50:27;23.40;1.00
5304;DHT22;2674;49.722;10.892;2023-07-31T10:52:54;23.40;1.00
5304;DHT22;2674;49.722;10.892;2023-07-31T10:55:28;23.30;1.00
5304;DHT22;2674;49.722;10.892;2023-07-31T10:57:56;23.20;1.00
5304;DHT22;2674;49.722;10.892;2023-07-31T11:00:27;23.10;1.00
5304;DHT22;2674;49.722;10.892;2023-07-31T11:03:17;23.10;1.00
5304;DHT22;2674;49.722;10.892;2023-07-31T11:08:27;23.10;1.00
5304;DHT22;2674;49.722;10.892;2023-07-31T11:15:54;23.40;1.00
5304;DHT22;2674;49.722;10.892;2023-07-31T11:18:20;23.40;1.00
5304;DHT22;2674;49.722;10.892;2023-07-31T11:20:46;23.30;1.00
5304;DHT22;2674;49.722;10.892;2023-07-31T11:23:12;23.20;1.00
5304;DHT22;2674;49.722;10.892;2023-07-31T11:25:39;23.20;1.00
5304;DHT22;2674;49.722;10.892;2023-07-31T11:28:12;23.10;1.00
5304;DHT22;2674;49.722;10.892;2023-07-31T11:30:39;23.10;1.00
5304;DHT22;2674;49.722;10.892;2023-07-31T11:33:07;23.30;1.00
5304;DHT22;2674;49.722;10.892;2023-07-31T11:35:34;23.30;1.00
5304;DHT22;2674;49.722;10.892;2023-07-31T11:38:02;23.30;1.00
5304;DHT22;2674;49.722;10.892;2023-07-31T11:40:28;23.30;1.00
5304;DHT22;2674;49.722;10.892;2023-07-31T11:42:59;23.20;1.00
5304;DHT22;2674;49.722;10.892;2023-07-31T11:45:30;23.20;1.00
5304;DHT22;2674;49.722;10.892;2023-07-31T11:47:56;23.20;1.00
5304;DHT22;2674;49.722;10.892;2023-07-31T11:50:23;23.30;1.00
5304;DHT22;2674;49.722;10.892;2023-07-31T11:53:01;23.20;1.00
5304;DHT22;2674;49.722;10.892;2023-07-31T11:55:28;23.20;1.00
5304;DHT22;2674;49.722;10.892;2023-07-31T11:57:56;23.20;1.00
5304;DHT22;2674;49.722;10.892;2023-07-31T12:00:23;23.20;1.00
5304;DHT22;2674;49.722;10.892;2023-07-31T12:02:50;23.30;1.00
5304;DHT22;2674;49.722;10.892;2023-07-31T12:05:17;23.40;1.00
5304;DHT22;2674;49.722;10.892;2023-07-31T12:07:44;23.50;1.00
5304;DHT22;2674;49.722;10.892;2023-07-31T12:10:11;23.60;1.00
5304;DHT22;2674;49.722;10.892;2023-07-31T12:12:56;23.50;1.00
5304;DHT22;2674;49.722;10.892;2023-07-31T12:15:36;23.50;1.00
5304;DHT22;2674;49.722;10.892;2023-07-31T12:18:08;23.40;1.00
5304;DHT22;2674;49.722;10.892;2023-07-31T12:20:34;23.30;1.00
5304;DHT22;2674;49.722;10.892;2023-07-31T12:23:00;23.30;1.00
5304;DHT22;2674;49.722;10.892;2023-07-31T12:25:31;23.30;1.00
5304;DHT22;2674;49.722;10.892;2023-07-31T12:27:57;23.30;1.00
5304;DHT22;2674;49.722;10.892;2023-07-31T12:30:33;23.40;1.00
5304;DHT22;2674;49.722;10.892;2023-07-31T12:33:11;23.30;1.00
5304;DHT22;2674;49.722;10.892;2023-07-31T12:35:40;23.40;1.00
5304;DHT22;2674;49.722;10.892;2023-07-31T12:38:06;23.50;1.00
5304;DHT22;2674;49.722;10.892;2023-07-31T12:40:32;23.70;1.00
5304;DHT22;2674;49.722;10.892;2023-07-31T12:43:01;23.90;1.00
5304;DHT22;2674;49.722;10.892;2023-07-31T12:45:29;24.10;1.00
5304;DHT22;2674;49.722;10.892;2023-07-31T12:47:55;24.10;1.00
5304;DHT22;2674;49.722;10.892;2023-07-31T12:50:21;24.10;1.00
5304;DHT22;2674;49.722;10.892;2023-07-31T12:52:47;24.10;1.00
5304;DHT22;2674;49.722;10.892;2023-07-31T12:55:12;24.20;1.00
5304;DHT22;2674;49.722;10.892;2023-07-31T12:57:39;24.20;1.00
5304;DHT22;2674;49.722;10.892;2023-07-31T13:00:06;24.20;1.00
5304;DHT22;2674;49.722;10.892;2023-07-31T13:02:32;24.10;1.00
5304;DHT22;2674;49.722;10.892;2023-07-31T13:04:58;24.00;1.00
5304;DHT22;2674;49.722;10.892;2023-07-31T13:07:24;24.00;1.00
5304;DHT22;2674;49.722;10.892;2023-07-31T13:09:51;24.10;1.00
5304;DHT22;2674;49.722;10.892;2023-07-31T13:12:16;24.00;1.00
5304;DHT22;2674;49.722;10.892;2023-07-31T13:14:45;24.00;1.00
5304;DHT22;2674;49.722;10.892;2023-07-31T13:17:11;24.20;1.00
5304;DHT22;2674;49.722;10.892;2023-07-31T13:19:39;24.40;1.00
5304;DHT22;2674;49.722;10.892;2023-07-31T13:22:05;24.40;1.00
5304;DHT22;2674;49.722;10.892;2023-07-31T13:24:31;24.50;1.00
5304;DHT22;2674;49.722;10.892;2023-07-31T13:26:57;24.60;1.00
5304;DHT22;2674;49.722;10.892;2023-07-31T13:29:23;24.50;99.90
5304;DHT22;2674;49.722;10.892;2023-07-31T13:31:50;24.60;99.90
5304;DHT22;2674;49.722;10.892;2023-07-31T13:34:15;24.50;99.90
5304;DHT22;2674;49.722;10.892;2023-07-31T13:36:41;24.50;99.90
5304;DHT22;2674;49.722;10.892;2023-07-31T13:39:07;24.60;99.90
5304;DHT22;2674;49.722;10.892;2023-07-31T13:41:33;24.70;99.90
5304;DHT22;2674;49.722;10.892;2023-07-31T13:43:59;24.60;99.90
5304;DHT22;2674;49.722;10.892;2023-07-31T13:46:25;24.60;99.90
5304;DHT22;2674;49.722;10.892;2023-07-31T13:48:51;24.50;99.90
5304;DHT22;2674;49.722;10.892;2023-07-31T13:51:20;24.40;99.90
5304;DHT22;2674;49.722;10.892;2023-07-31T13:53:46;24.30;99.90
5304;DHT22;2674;49.722;10.892;2023-07-31T13:56:11;24.20;99.90
5304;DHT22;2674;49.722;10.892;2023-07-31T13:58:37;24.20;99.90
5304;DHT22;2674;49.722;10.892;2023-07-31T14:01:03;24.00;99.90
5304;DHT22;2674;49.722;10.892;2023-07-31T14:03:29;24.10;99.90
5304;DHT22;2674;49.722;10.892;2023-07-31T14:05:55;24.00;99.90
5304;DHT22;2674;49.722;10.892;2023-07-31T14:08:21;24.00;99.90
5304;DHT22;2674;49.722;10.892;2023-07-31T14:10:47;23.90;99.90
5304;DHT22;2674;49.722;10.892;2023-07-31T14:13:13;23.90;99.90
5304;DHT22;2674;49.722;10.892;2023-07-31T14:15:42;23.80;99.90
5304;DHT22;2674;49.722;10.892;2023-07-31T14:18:11;23.80;99.90
5304;DHT22;2674;49.722;10.892;2023-07-31T14:20:36;23.70;99.90
5304;DHT22;2674;49.722;10.892;2023-07-31T14:23:03;23.60;99.90
5304;DHT22;2674;49.722;10.892;2023-07-31T14:25:28;23.50;99.90
5304;DHT22;2674;49.722;10.892;2023-07-31T14:27:54;23.50;99.90
5304;DHT22;2674;49.722;10.892;2023-07-31T14:30:20;23.40;99.90
5304;DHT22;2674;49.722;10.892;2023-07-31T14:32:46;23.40;99.90
5304;DHT22;2674;49.722;10.892;2023-07-31T14:35:12;23.40;99.90
5304;DHT22;2674;49.722;10.892;2023-07-31T14:37:40;23.40;99.90
5304;DHT22;2674;49.722;10.892;2023-07-31T14:40:07;23.50;99.90
5304;DHT22;2674;49.722;10.892;2023-07-31T14:42:34;23.60;99.90
5304;DHT22;2674;49.722;10.892;2023-07-31T14:45:01;23.60;99.90
5304;DHT22;2674;49.722;10.892;2023-07-31T14:47:26;23.60;99.90
5304;DHT22;2674;49.722;10.892;2023-07-31T14:49:52;23.50;99.90
5304;DHT22;2674;49.722;10.892;2023-07-31T14:52:18;23.50;99.90
5304;DHT22;2674;49.722;10.892;2023-07-31T14:54:45;23.40;99.90
5304;DHT22;2674;49.722;10.892;2023-07-31T14:57:11;23.30;99.90
5304;DHT22;2674;49.722;10.892;2023-07-31T14:59:36;23.20;99.90
5304;DHT22;2674;49.722;10.892;2023-07-31T15:02:02;23.10;99.90
5304;DHT22;2674;49.722;10.892;2023-07-31T15:04:29;23.10;99.90
5304;DHT22;2674;49.722;10.892;2023-07-31T15:06:55;23.00;99.90
5304;DHT22;2674;49.722;10.892;2023-07-31T15:09:20;23.00;99.90
5304;DHT22;2674;49.722;10.892;2023-07-31T15:11:47;22.90;99.90
5304;DHT22;2674;49.722;10.892;2023-07-31T15:14:13;22.90;99.90
5304;DHT22;2674;49.722;10.892;2023-07-31T15:16:38;22.80;99.90
5304;DHT22;2674;49.722;10.892;2023-07-31T15:19:04;22.80;99.90
5304;DHT22;2674;49.722;10.892;2023-07-31T15:21:30;22.70;99.90
5304;DHT22;2674;49.722;10.892;2023-07-31T15:23:56;22.60;99.90
5304;DHT22;2674;49.722;10.892;2023-07-31T15:26:22;22.70;99.90
5304;DHT22;2674;49.722;10.892;2023-07-31T15:28:53;22.60;99.90
5304;DHT22;2674;49.722;10.892;2023-07-31T15:31:20;22.70;99.90
5304;DHT22;2674;49.722;10.892;2023-07-31T15:33:48;22.60;99.90
5304;DHT22;2674;49.722;10.892;2023-07-31T15:36:14;22.70;99.90
5304;DHT22;2674;49.722;10.892;2023-07-31T15:38:41;22.60;99.90
5304;DHT22;2674;49.722;10.892;2023-07-31T15:41:06;22.60;99.90
5304;DHT22;2674;49.722;10.892;2023-07-31T15:43:32;22.60;99.90
5304;DHT22;2674;49.722;10.892;2023-07-31T15:45:58;22.60;99.90
5304;DHT22;2674;49.722;10.892;2023-07-31T15:48:24;22.60;99.90
5304;DHT22;2674;49.722;10.892;2023-07-31T15:50:50;22.70;99.90
5304;DHT22;2674;49.722;10.892;2023-07-31T15:53:16;22.80;99.90
5304;DHT22;2674;49.722;10.892;2023-07-31T15:55:42;22.90;99.90
5304;DHT22;2674;49.722;10.892;2023-07-31T15:58:08;22.90;99.90
5304;DHT22;2674;49.722;10.892;2023-07-31T16:00:34;22.90;99.90
5304;DHT22;2674;49.722;10.892;2023-07-31T16:02:59;22.90;99.90
5304;DHT22;2674;49.722;10.892;2023-07-31T16:05:25;22.90;99.90
5304;DHT22;2674;49.722;10.892;2023-07-31T16:07:51;22.90;99.90
5304;DHT22;2674;49.722;10.892;2023-07-31T16:10:17;22.80;99.90